sensor_id;sensor_type;location;lat;lon;timestamp;P1;durP1;ratioP1;P2;durP2;ratioP2
33696;SDS011;20031;43.416;23.232;2023-12-20T00:02:10;3.13;;;2.70;;
33696;SDS011;20031;43.416;23.232;2023-12-20T00:04:36;3.67;;;2.70;;
33696;SDS011;20031;43.416;23.232;2023-12-20T00:07:02;3.10;;;2.50;;
33696;SDS011;20031;43.416;23.232;2023-12-20T00:09:28;3.05;;;2.50;;
33696;SDS011;20031;43.416;23.232;2023-12-20T00:11:53;2.70;;;2.47;;
33696;SDS011;20031;43.416;23.232;2023-12-20T00:14:19;2.72;;;2.40;;
33696;SDS011;20031;43.416;23.232;2023-12-20T00:16:45;2.45;;;2.25;;
33696;SDS011;20031;43.416;23.232;2023-12-20T00:19:10;2.90;;;2.45;;
33696;SDS011;20031;43.416;23.232;2023-12-20T00:21:36;3.10;;;2.80;;
33696;SDS011;20031;43.416;23.232;2023-12-20T00:24:01;3.05;;;2.30;;
33696;SDS011;20031;43.416;23.232;2023-12-20T00:26:27;2.60;;;2.40;;
33696;SDS011;20031;43.416;23.232;2023-12-20T00:28:53;2.75;;;2.38;;
33696;SDS011;20031;43.416;23.232;2023-12-20T00:31:18;2.67;;;2.40;;
33696;SDS011;20031;43.416;23.232;2023-12-20T00:33:44;2.42;;;2.10;;
33696;SDS011;20031;43.416;23.232;2023-12-20T00:36:11;5.22;;;4.32;;
33696;SDS011;20031;43.416;23.232;2023-12-20T00:38:36;9.77;;;7.07;;
33696;SDS011;20031;43.416;23.232;2023-12-20T00:41:02;12.00;;;8.20;;
33696;SDS011;20031;43.416;23.232;2023-12-20T00:43:27;8.30;;;6.53;;
33696;SDS011;20031;43.416;23.232;2023-12-20T00:45:53;8.88;;;6.50;;
33696;SDS011;20031;43.416;23.232;2023-12-20T00:48:18;9.57;;;7.03;;
33696;SDS011;20031;43.416;23.232;2023-12-20T00:50:44;2.60;;;2.40;;
33696;SDS011;20031;43.416;23.232;2023-12-20T00:53:09;2.85;;;2.58;;
33696;SDS011;20031;43.416;23.232;2023-12-20T00:55:34;2.30;;;2.10;;
33696;SDS011;20031;43.416;23.232;2023-12-20T00:58:00;2.20;;;1.98;;
33696;SDS011;20031;43.416;23.232;2023-12-20T01:00:25;2.40;;;2.20;;
33696;SDS011;20031;43.416;23.232;2023-12-20T01:02:51;2.15;;;1.95;;
33696;SDS011;20031;43.416;23.232;2023-12-20T01:05:17;2.20;;;2.00;;
33696;SDS011;20031;43.416;23.232;2023-12-20T01:07:44;2.30;;;2.00;;
33696;SDS011;20031;43.416;23.232;2023-12-20T01:10:09;2.10;;;1.90;;
33696;SDS011;20031;43.416;23.232;2023-12-20T01:12:35;14.43;;;11.40;;
33696;SDS011;20031;43.416;23.232;2023-12-20T01:15:01;17.13;;;11.55;;
33696;SDS011;20031;43.416;23.232;2023-12-20T01:17:27;13.23;;;9.85;;
33696;SDS011;20031;43.416;23.232;2023-12-20T01:19:52;3.30;;;3.00;;
33696;SDS011;20031;43.416;23.232;2023-12-20T01:22:18;2.30;;;2.10;;
33696;SDS011;20031;43.416;23.232;2023-12-20T01:24:44;2.30;;;2.10;;
33696;SDS011;20031;43.416;23.232;2023-12-20T01:27:09;2.40;;;2.20;;
33696;SDS011;20031;43.416;23.232;2023-12-20T01:29:34;2.65;;;2.17;;
33696;SDS011;20031;43.416;23.232;2023-12-20T01:32:00;3.22;;;2.15;;
33696;SDS011;20031;43.416;23.232;2023-12-20T01:34:25;2.38;;;2.17;;
33696;SDS011;20031;43.416;23.232;2023-12-20T01:36:51;7.03;;;4.88;;
33696;SDS011;20031;43.416;23.232;2023-12-20T01:39:17;10.27;;;6.18;;
33696;SDS011;20031;43.416;23.232;2023-12-20T01:41:43;26.17;;;10.00;;
33696;SDS011;20031;43.416;23.232;2023-12-20T01:44:08;12.80;;;8.90;;
33696;SDS011;20031;43.416;23.232;2023-12-20T01:46:34;13.73;;;9.02;;
33696;SDS011;20031;43.416;23.232;2023-12-20T01:48:59;12.48;;;8.75;;
33696;SDS011;20031;43.416;23.232;2023-12-20T01:51:25;13.80;;;9.02;;
33696;SDS011;20031;43.416;23.232;2023-12-20T01:53:52;12.38;;;8.70;;
33696;SDS011;20031;43.416;23.232;2023-12-20T01:56:20;12.85;;;8.93;;
33696;SDS011;20031;43.416;23.232;2023-12-20T01:58:46;15.05;;;10.10;;
33696;SDS011;20031;43.416;23.232;2023-12-20T02:01:12;15.10;;;10.23;;
33696;SDS011;20031;43.416;23.232;2023-12-20T02:03:39;14.55;;;10.48;;
33696;SDS011;20031;43.416;23.232;2023-12-20T02:06:08;15.63;;;9.75;;
33696;SDS011;20031;43.416;23.232;2023-12-20T02:08:34;14.65;;;8.95;;
33696;SDS011;20031;43.416;23.232;2023-12-20T02:11:01;16.30;;;8.50;;
33696;SDS011;20031;43.416;23.232;2023-12-20T02:13:26;14.20;;;8.57;;
33696;SDS011;20031;43.416;23.232;2023-12-20T02:15:52;13.27;;;8.65;;
33696;SDS011;20031;43.416;23.232;2023-12-20T02:18:17;14.23;;;8.40;;
33696;SDS011;20031;43.416;23.232;2023-12-20T02:20:43;14.13;;;9.02;;
33696;SDS011;20031;43.416;23.232;2023-12-20T02:23:09;18.20;;;10.38;;
33696;SDS011;20031;43.416;23.232;2023-12-20T02:25:34;20.48;;;14.00;;
33696;SDS011;20031;43.416;23.232;2023-12-20T02:28:00;68.75;;;39.88;;
33696;SDS011;20031;43.416;23.232;2023-12-20T02:30:26;16.58;;;11.30;;
33696;SDS011;20031;43.416;23.232;2023-12-20T02:32:52;17.02;;;10.68;;
33696;SDS011;20031;43.416;23.232;2023-12-20T02:35:18;16.17;;;10.68;;
33696;SDS011;20031;43.416;23.232;2023-12-20T02:37:44;20.17;;;11.65;;
33696;SDS011;20031;43.416;23.232;2023-12-20T02:40:09;18.27;;;12.23;;
33696;SDS011;20031;43.416;23.232;2023-12-20T02:42:35;21.02;;;12.70;;
33696;SDS011;20031;43.416;23.232;2023-12-20T02:45:01;17.15;;;11.25;;
33696;SDS011;20031;43.416;23.232;2023-12-20T02:47:26;16.52;;;11.45;;
33696;SDS011;20031;43.416;23.232;2023-12-20T02:49:52;18.35;;;12.48;;
33696;SDS011;20031;43.416;23.232;2023-12-20T02:52:18;17.63;;;11.63;;
33696;SDS011;20031;43.416;23.232;2023-12-20T02:54:43;17.83;;;11.57;;
33696;SDS011;20031;43.416;23.232;2023-12-20T02:57:09;16.27;;;11.13;;
33696;SDS011;20031;43.416;23.232;2023-12-20T02:59:34;21.48;;;12.98;;
33696;SDS011;20031;43.416;23.232;2023-12-20T03:01:59;21.55;;;12.70;;
33696;SDS011;20031;43.416;23.232;2023-12-20T03:04:25;23.70;;;14.48;;
33696;SDS011;20031;43.416;23.232;2023-12-20T03:06:50;20.75;;;13.60;;
33696;SDS011;20031;43.416;23.232;2023-12-20T03:09:16;24.17;;;14.77;;
33696;SDS011;20031;43.416;23.232;2023-12-20T03:11:41;26.80;;;15.52;;
33696;SDS011;20031;43.416;23.232;2023-12-20T03:14:07;41.72;;;22.20;;
33696;SDS011;20031;43.416;23.232;2023-12-20T03:16:32;26.50;;;14.80;;
33696;SDS011;20031;43.416;23.232;2023-12-20T03:18:58;21.65;;;12.68;;
33696;SDS011;20031;43.416;23.232;2023-12-20T03:21:23;20.58;;;12.38;;
33696;SDS011;20031;43.416;23.232;2023-12-20T03:23:49;20.58;;;12.82;;
33696;SDS011;20031;43.416;23.232;2023-12-20T03:26:14;16.92;;;11.10;;
33696;SDS011;20031;43.416;23.232;2023-12-20T03:28:40;16.70;;;11.30;;
33696;SDS011;20031;43.416;23.232;2023-12-20T03:31:05;13.30;;;9.00;;
33696;SDS011;20031;43.416;23.232;2023-12-20T03:33:30;13.00;;;8.68;;
33696;SDS011;20031;43.416;23.232;2023-12-20T03:35:56;15.27;;;9.77;;
33696;SDS011;20031;43.416;23.232;2023-12-20T03:38:22;13.90;;;8.85;;
33696;SDS011;20031;43.416;23.232;2023-12-20T03:40:49;24.08;;;11.98;;
33696;SDS011;20031;43.416;23.232;2023-12-20T03:43:15;29.05;;;13.25;;
33696;SDS011;20031;43.416;23.232;2023-12-20T03:45:41;27.02;;;15.77;;
33696;SDS011;20031;43.416;23.232;2023-12-20T03:48:07;30.52;;;15.48;;
33696;SDS011;20031;43.416;23.232;2023-12-20T03:50:32;21.92;;;13.43;;
33696;SDS011;20031;43.416;23.232;2023-12-20T03:52:58;21.88;;;13.52;;
33696;SDS011;20031;43.416;23.232;2023-12-20T03:55:23;27.40;;;14.85;;
33696;SDS011;20031;43.416;23.232;2023-12-20T03:57:48;22.48;;;14.60;;
33696;SDS011;20031;43.416;23.232;2023-12-20T04:00:14;18.40;;;12.10;;
33696;SDS011;20031;43.416;23.232;2023-12-20T04:02:41;26.50;;;13.45;;
33696;SDS011;20031;43.416;23.232;2023-12-20T04:05:07;24.85;;;13.18;;
33696;SDS011;20031;43.416;23.232;2023-12-20T04:07:33;27.13;;;13.30;;
33696;SDS011;20031;43.416;23.232;2023-12-20T04:10:00;20.50;;;12.85;;
33696;SDS011;20031;43.416;23.232;2023-12-20T04:12:25;17.95;;;11.55;;
33696;SDS011;20031;43.416;23.232;2023-12-20T04:14:52;18.77;;;11.55;;
33696;SDS011;20031;43.416;23.232;2023-12-20T04:17:17;24.20;;;11.73;;
33696;SDS011;20031;43.416;23.232;2023-12-20T04:19:43;23.17;;;11.88;;
33696;SDS011;20031;43.416;23.232;2023-12-20T04:22:09;17.70;;;10.80;;
33696;SDS011;20031;43.416;23.232;2023-12-20T04:24:34;17.75;;;10.07;;
33696;SDS011;20031;43.416;23.232;2023-12-20T04:27:00;20.35;;;10.32;;
33696;SDS011;20031;43.416;23.232;2023-12-20T04:29:26;19.45;;;10.23;;
33696;SDS011;20031;43.416;23.232;2023-12-20T04:31:51;19.40;;;11.23;;
33696;SDS011;20031;43.416;23.232;2023-12-20T04:34:17;23.55;;;12.48;;
33696;SDS011;20031;43.416;23.232;2023-12-20T04:36:42;19.95;;;13.50;;
33696;SDS011;20031;43.416;23.232;2023-12-20T04:39:08;27.58;;;14.90;;
33696;SDS011;20031;43.416;23.232;2023-12-20T04:41:33;21.13;;;12.73;;
33696;SDS011;20031;43.416;23.232;2023-12-20T04:43:58;18.77;;;12.07;;
33696;SDS011;20031;43.416;23.232;2023-12-20T04:46:25;19.77;;;13.27;;
33696;SDS011;20031;43.416;23.232;2023-12-20T04:48:51;19.40;;;13.23;;
33696;SDS011;20031;43.416;23.232;2023-12-20T04:51:16;23.00;;;14.45;;
33696;SDS011;20031;43.416;23.232;2023-12-20T04:53:42;26.83;;;13.57;;
33696;SDS011;20031;43.416;23.232;2023-12-20T04:56:07;22.48;;;13.40;;
33696;SDS011;20031;43.416;23.232;2023-12-20T04:58:32;24.48;;;13.43;;
33696;SDS011;20031;43.416;23.232;2023-12-20T05:00:58;40.33;;;14.85;;
33696;SDS011;20031;43.416;23.232;2023-12-20T05:03:23;37.20;;;15.20;;
33696;SDS011;20031;43.416;23.232;2023-12-20T05:05:49;31.83;;;15.10;;
33696;SDS011;20031;43.416;23.232;2023-12-20T05:08:14;67.47;;;16.83;;
33696;SDS011;20031;43.416;23.232;2023-12-20T05:10:40;66.72;;;16.75;;
33696;SDS011;20031;43.416;23.232;2023-12-20T05:13:05;44.30;;;15.15;;
33696;SDS011;20031;43.416;23.232;2023-12-20T05:15:31;31.60;;;13.68;;
33696;SDS011;20031;43.416;23.232;2023-12-20T05:17:57;29.52;;;14.35;;
33696;SDS011;20031;43.416;23.232;2023-12-20T05:20:22;28.30;;;13.90;;
33696;SDS011;20031;43.416;23.232;2023-12-20T05:22:48;25.15;;;14.35;;
33696;SDS011;20031;43.416;23.232;2023-12-20T05:25:13;20.70;;;13.32;;
33696;SDS011;20031;43.416;23.232;2023-12-20T05:27:39;21.17;;;12.30;;
33696;SDS011;20031;43.416;23.232;2023-12-20T05:30:05;20.23;;;11.73;;
33696;SDS011;20031;43.416;23.232;2023-12-20T05:32:31;15.98;;;10.02;;
33696;SDS011;20031;43.416;23.232;2023-12-20T05:34:56;12.50;;;9.07;;
33696;SDS011;20031;43.416;23.232;2023-12-20T05:37:21;17.75;;;8.43;;
33696;SDS011;20031;43.416;23.232;2023-12-20T05:39:47;19.20;;;9.05;;
33696;SDS011;20031;43.416;23.232;2023-12-20T05:42:12;29.98;;;13.10;;
33696;SDS011;20031;43.416;23.232;2023-12-20T05:44:38;34.95;;;14.13;;
33696;SDS011;20031;43.416;23.232;2023-12-20T05:47:03;37.83;;;13.43;;
33696;SDS011;20031;43.416;23.232;2023-12-20T05:49:29;45.08;;;14.63;;
33696;SDS011;20031;43.416;23.232;2023-12-20T05:51:54;33.30;;;13.93;;
33696;SDS011;20031;43.416;23.232;2023-12-20T05:54:19;38.45;;;14.13;;
33696;SDS011;20031;43.416;23.232;2023-12-20T05:56:45;28.25;;;12.95;;
33696;SDS011;20031;43.416;23.232;2023-12-20T05:59:11;43.70;;;13.98;;
33696;SDS011;20031;43.416;23.232;2023-12-20T06:01:36;46.47;;;12.98;;
33696;SDS011;20031;43.416;23.232;2023-12-20T06:04:01;26.20;;;13.25;;
33696;SDS011;20031;43.416;23.232;2023-12-20T06:06:28;26.98;;;12.23;;
33696;SDS011;20031;43.416;23.232;2023-12-20T06:08:53;19.30;;;11.70;;
33696;SDS011;20031;43.416;23.232;2023-12-20T06:11:19;29.63;;;12.25;;
33696;SDS011;20031;43.416;23.232;2023-12-20T06:13:44;27.05;;;11.45;;
33696;SDS011;20031;43.416;23.232;2023-12-20T06:16:10;20.85;;;10.85;;
33696;SDS011;20031;43.416;23.232;2023-12-20T06:18:35;21.90;;;10.57;;
33696;SDS011;20031;43.416;23.232;2023-12-20T06:21:02;20.60;;;11.68;;
33696;SDS011;20031;43.416;23.232;2023-12-20T06:23:27;17.55;;;11.90;;
33696;SDS011;20031;43.416;23.232;2023-12-20T06:25:53;33.08;;;17.67;;
33696;SDS011;20031;43.416;23.232;2023-12-20T06:28:18;71.72;;;46.20;;
33696;SDS011;20031;43.416;23.232;2023-12-20T06:30:44;41.20;;;25.42;;
33696;SDS011;20031;43.416;23.232;2023-12-20T06:33:10;40.33;;;20.20;;
33696;SDS011;20031;43.416;23.232;2023-12-20T06:35:36;45.38;;;25.90;;
33696;SDS011;20031;43.416;23.232;2023-12-20T06:38:02;43.55;;;21.98;;
33696;SDS011;20031;43.416;23.232;2023-12-20T06:40:27;57.20;;;19.02;;
33696;SDS011;20031;43.416;23.232;2023-12-20T06:42:52;49.10;;;15.60;;
33696;SDS011;20031;43.416;23.232;2023-12-20T06:45:18;36.05;;;15.20;;
33696;SDS011;20031;43.416;23.232;2023-12-20T06:47:43;32.10;;;14.02;;
33696;SDS011;20031;43.416;23.232;2023-12-20T06:50:09;40.25;;;17.90;;
33696;SDS011;20031;43.416;23.232;2023-12-20T06:52:34;31.75;;;18.38;;
33696;SDS011;20031;43.416;23.232;2023-12-20T06:55:00;36.60;;;16.27;;
33696;SDS011;20031;43.416;23.232;2023-12-20T06:57:26;42.50;;;17.27;;
33696;SDS011;20031;43.416;23.232;2023-12-20T06:59:51;32.85;;;14.18;;
33696;SDS011;20031;43.416;23.232;2023-12-20T07:02:17;24.67;;;11.95;;
33696;SDS011;20031;43.416;23.232;2023-12-20T07:04:43;18.58;;;10.80;;
33696;SDS011;20031;43.416;23.232;2023-12-20T07:07:08;26.10;;;13.65;;
33696;SDS011;20031;43.416;23.232;2023-12-20T07:09:34;32.17;;;14.13;;
33696;SDS011;20031;43.416;23.232;2023-12-20T07:11:59;33.65;;;13.55;;
33696;SDS011;20031;43.416;23.232;2023-12-20T07:14:25;24.92;;;12.95;;
33696;SDS011;20031;43.416;23.232;2023-12-20T07:16:50;21.40;;;10.63;;
33696;SDS011;20031;43.416;23.232;2023-12-20T07:19:15;22.67;;;11.70;;
33696;SDS011;20031;43.416;23.232;2023-12-20T07:21:41;26.88;;;12.13;;
33696;SDS011;20031;43.416;23.232;2023-12-20T07:24:06;22.02;;;11.60;;
33696;SDS011;20031;43.416;23.232;2023-12-20T07:26:32;26.50;;;13.43;;
33696;SDS011;20031;43.416;23.232;2023-12-20T07:28:57;24.23;;;12.63;;
33696;SDS011;20031;43.416;23.232;2023-12-20T07:31:23;23.30;;;12.38;;
33696;SDS011;20031;43.416;23.232;2023-12-20T07:33:49;27.77;;;11.18;;
33696;SDS011;20031;43.416;23.232;2023-12-20T07:36:14;30.17;;;10.35;;
33696;SDS011;20031;43.416;23.232;2023-12-20T07:38:40;32.83;;;10.30;;
33696;SDS011;20031;43.416;23.232;2023-12-20T07:41:09;36.72;;;11.13;;
33696;SDS011;20031;43.416;23.232;2023-12-20T07:43:34;26.98;;;11.00;;
33696;SDS011;20031;43.416;23.232;2023-12-20T07:46:03;25.63;;;8.63;;
33696;SDS011;20031;43.416;23.232;2023-12-20T07:48:30;21.17;;;9.43;;
33696;SDS011;20031;43.416;23.232;2023-12-20T07:50:55;22.63;;;10.45;;
33696;SDS011;20031;43.416;23.232;2023-12-20T07:53:21;24.95;;;11.13;;
33696;SDS011;20031;43.416;23.232;2023-12-20T07:55:46;36.28;;;14.07;;
33696;SDS011;20031;43.416;23.232;2023-12-20T07:58:12;21.77;;;9.15;;
33696;SDS011;20031;43.416;23.232;2023-12-20T08:00:37;24.27;;;9.10;;
33696;SDS011;20031;43.416;23.232;2023-12-20T08:03:03;16.52;;;8.00;;
33696;SDS011;20031;43.416;23.232;2023-12-20T08:05:28;20.48;;;7.07;;
33696;SDS011;20031;43.416;23.232;2023-12-20T08:13:16;14.37;;;5.17;;
33696;SDS011;20031;43.416;23.232;2023-12-20T08:15:41;16.42;;;6.43;;
33696;SDS011;20031;43.416;23.232;2023-12-20T08:18:07;21.58;;;6.57;;
33696;SDS011;20031;43.416;23.232;2023-12-20T08:20:32;17.77;;;6.65;;
33696;SDS011;20031;43.416;23.232;2023-12-20T08:22:58;17.58;;;6.35;;
33696;SDS011;20031;43.416;23.232;2023-12-20T08:25:23;22.42;;;8.07;;
33696;SDS011;20031;43.416;23.232;2023-12-20T08:27:49;22.10;;;8.77;;
33696;SDS011;20031;43.416;23.232;2023-12-20T08:30:14;19.65;;;7.90;;
33696;SDS011;20031;43.416;23.232;2023-12-20T08:32:42;20.42;;;7.90;;
33696;SDS011;20031;43.416;23.232;2023-12-20T08:35:07;27.73;;;13.73;;
33696;SDS011;20031;43.416;23.232;2023-12-20T08:37:33;25.13;;;9.15;;
33696;SDS011;20031;43.416;23.232;2023-12-20T08:39:59;30.95;;;10.77;;
33696;SDS011;20031;43.416;23.232;2023-12-20T08:42:24;30.48;;;10.50;;
33696;SDS011;20031;43.416;23.232;2023-12-20T08:44:55;24.65;;;7.90;;
33696;SDS011;20031;43.416;23.232;2023-12-20T08:47:21;19.52;;;7.80;;
33696;SDS011;20031;43.416;23.232;2023-12-20T08:49:46;14.13;;;6.30;;
33696;SDS011;20031;43.416;23.232;2023-12-20T08:52:12;28.17;;;7.82;;
33696;SDS011;20031;43.416;23.232;2023-12-20T08:54:37;20.10;;;7.10;;
33696;SDS011;20031;43.416;23.232;2023-12-20T08:57:03;25.25;;;8.07;;
33696;SDS011;20031;43.416;23.232;2023-12-20T08:59:31;18.60;;;7.30;;
33696;SDS011;20031;43.416;23.232;2023-12-20T09:01:56;23.20;;;7.78;;
33696;SDS011;20031;43.416;23.232;2023-12-20T09:04:21;19.10;;;7.88;;
33696;SDS011;20031;43.416;23.232;2023-12-20T09:06:47;13.98;;;6.30;;
33696;SDS011;20031;43.416;23.232;2023-12-20T09:09:12;23.15;;;8.38;;
33696;SDS011;20031;43.416;23.232;2023-12-20T09:11:40;21.70;;;8.27;;
33696;SDS011;20031;43.416;23.232;2023-12-20T09:14:07;16.25;;;6.72;;
33696;SDS011;20031;43.416;23.232;2023-12-20T09:16:32;13.88;;;7.15;;
33696;SDS011;20031;43.416;23.232;2023-12-20T09:18:57;22.77;;;6.75;;
33696;SDS011;20031;43.416;23.232;2023-12-20T09:21:23;18.60;;;6.82;;
33696;SDS011;20031;43.416;23.232;2023-12-20T09:23:49;16.23;;;6.28;;
33696;SDS011;20031;43.416;23.232;2023-12-20T09:26:14;12.93;;;6.50;;
33696;SDS011;20031;43.416;23.232;2023-12-20T09:28:40;12.15;;;5.75;;
33696;SDS011;20031;43.416;23.232;2023-12-20T09:31:05;14.73;;;5.93;;
33696;SDS011;20031;43.416;23.232;2023-12-20T09:33:31;19.45;;;6.68;;
33696;SDS011;20031;43.416;23.232;2023-12-20T09:35:57;20.23;;;7.70;;
33696;SDS011;20031;43.416;23.232;2023-12-20T09:38:23;16.67;;;8.70;;
33696;SDS011;20031;43.416;23.232;2023-12-20T09:40:48;32.63;;;12.40;;
33696;SDS011;20031;43.416;23.232;2023-12-20T09:43:14;37.42;;;12.95;;
33696;SDS011;20031;43.416;23.232;2023-12-20T09:45:45;34.25;;;13.27;;
33696;SDS011;20031;43.416;23.232;2023-12-20T09:48:11;27.90;;;11.90;;
33696;SDS011;20031;43.416;23.232;2023-12-20T09:50:39;27.95;;;10.55;;
33696;SDS011;20031;43.416;23.232;2023-12-20T09:53:05;21.20;;;9.95;;
33696;SDS011;20031;43.416;23.232;2023-12-20T09:55:35;60.15;;;16.55;;
33696;SDS011;20031;43.416;23.232;2023-12-20T09:58:02;44.08;;;14.00;;
33696;SDS011;20031;43.416;23.232;2023-12-20T10:00:27;53.85;;;13.63;;
33696;SDS011;20031;43.416;23.232;2023-12-20T10:03:02;40.13;;;11.73;;
33696;SDS011;20031;43.416;23.232;2023-12-20T10:05:31;38.15;;;11.43;;
33696;SDS011;20031;43.416;23.232;2023-12-20T10:07:58;28.27;;;10.45;;
33696;SDS011;20031;43.416;23.232;2023-12-20T10:10:25;34.78;;;10.80;;
33696;SDS011;20031;43.416;23.232;2023-12-20T10:13:03;29.85;;;9.95;;
33696;SDS011;20031;43.416;23.232;2023-12-20T10:15:30;21.08;;;9.20;;
33696;SDS011;20031;43.416;23.232;2023-12-20T10:17:57;20.83;;;8.57;;
33696;SDS011;20031;43.416;23.232;2023-12-20T10:20:23;11.38;;;6.90;;
33696;SDS011;20031;43.416;23.232;2023-12-20T10:22:48;37.03;;;17.80;;
33696;SDS011;20031;43.416;23.232;2023-12-20T10:25:14;14.13;;;7.88;;
33696;SDS011;20031;43.416;23.232;2023-12-20T10:27:40;16.38;;;9.18;;
33696;SDS011;20031;43.416;23.232;2023-12-20T10:30:05;23.67;;;11.15;;
33696;SDS011;20031;43.416;23.232;2023-12-20T10:32:31;15.52;;;8.40;;
33696;SDS011;20031;43.416;23.232;2023-12-20T10:34:57;14.50;;;6.53;;
33696;SDS011;20031;43.416;23.232;2023-12-20T10:37:24;9.95;;;5.10;;
33696;SDS011;20031;43.416;23.232;2023-12-20T10:39:50;9.82;;;5.15;;
33696;SDS011;20031;43.416;23.232;2023-12-20T10:42:21;7.47;;;4.43;;
33696;SDS011;20031;43.416;23.232;2023-12-20T10:44:48;6.72;;;4.38;;
33696;SDS011;20031;43.416;23.232;2023-12-20T10:47:16;7.38;;;4.60;;
33696;SDS011;20031;43.416;23.232;2023-12-20T10:49:45;6.70;;;4.45;;
33696;SDS011;20031;43.416;23.232;2023-12-20T10:52:12;7.85;;;4.50;;
33696;SDS011;20031;43.416;23.232;2023-12-20T10:54:38;7.32;;;4.78;;
33696;SDS011;20031;43.416;23.232;2023-12-20T10:57:07;9.65;;;4.50;;
33696;SDS011;20031;43.416;23.232;2023-12-20T10:59:33;6.15;;;4.57;;
33696;SDS011;20031;43.416;23.232;2023-12-20T11:02:02;5.75;;;4.28;;
33696;SDS011;20031;43.416;23.232;2023-12-20T11:04:50;11.38;;;5.40;;
33696;SDS011;20031;43.416;23.232;2023-12-20T11:07:23;18.40;;;6.03;;
33696;SDS011;20031;43.416;23.232;2023-12-20T11:10:00;11.43;;;4.93;;
33696;SDS011;20031;43.416;23.232;2023-12-20T11:12:41;8.77;;;4.25;;
33696;SDS011;20031;43.416;23.232;2023-12-20T11:15:13;7.47;;;4.25;;
33696;SDS011;20031;43.416;23.232;2023-12-20T11:17:40;8.75;;;4.00;;
33696;SDS011;20031;43.416;23.232;2023-12-20T11:20:09;11.60;;;3.75;;
33696;SDS011;20031;43.416;23.232;2023-12-20T11:22:36;12.95;;;3.63;;
33696;SDS011;20031;43.416;23.232;2023-12-20T11:27:31;5.75;;;4.07;;
33696;SDS011;20031;43.416;23.232;2023-12-20T11:29:58;10.98;;;3.92;;
33696;SDS011;20031;43.416;23.232;2023-12-20T11:34:55;6.38;;;3.00;;
33696;SDS011;20031;43.416;23.232;2023-12-20T11:37:21;4.93;;;3.10;;
33696;SDS011;20031;43.416;23.232;2023-12-20T11:39:56;8.30;;;3.53;;
33696;SDS011;20031;43.416;23.232;2023-12-20T11:42:25;3.95;;;3.00;;
33696;SDS011;20031;43.416;23.232;2023-12-20T11:44:51;5.90;;;3.38;;
33696;SDS011;20031;43.416;23.232;2023-12-20T11:47:17;4.60;;;3.47;;
33696;SDS011;20031;43.416;23.232;2023-12-20T11:49:44;8.25;;;3.55;;
33696;SDS011;20031;43.416;23.232;2023-12-20T11:52:12;3.90;;;3.40;;
33696;SDS011;20031;43.416;23.232;2023-12-20T11:54:38;10.13;;;3.70;;
33696;SDS011;20031;43.416;23.232;2023-12-20T11:57:03;7.53;;;3.80;;
33696;SDS011;20031;43.416;23.232;2023-12-20T11:59:30;7.70;;;3.55;;
33696;SDS011;20031;43.416;23.232;2023-12-20T12:01:58;9.07;;;4.00;;
33696;SDS011;20031;43.416;23.232;2023-12-20T12:04:26;16.13;;;5.90;;
33696;SDS011;20031;43.416;23.232;2023-12-20T12:06:53;9.32;;;4.45;;
33696;SDS011;20031;43.416;23.232;2023-12-20T12:09:19;9.68;;;4.57;;
33696;SDS011;20031;43.416;23.232;2023-12-20T12:11:44;5.90;;;4.22;;
33696;SDS011;20031;43.416;23.232;2023-12-20T12:14:10;5.20;;;4.00;;
33696;SDS011;20031;43.416;23.232;2023-12-20T12:16:35;5.75;;;3.92;;
33696;SDS011;20031;43.416;23.232;2023-12-20T12:19:01;6.13;;;3.78;;
33696;SDS011;20031;43.416;23.232;2023-12-20T12:21:26;6.75;;;4.47;;
33696;SDS011;20031;43.416;23.232;2023-12-20T12:23:52;9.70;;;5.35;;
33696;SDS011;20031;43.416;23.232;2023-12-20T12:26:18;19.25;;;6.65;;
33696;SDS011;20031;43.416;23.232;2023-12-20T12:28:43;8.63;;;5.30;;
33696;SDS011;20031;43.416;23.232;2023-12-20T12:31:13;7.28;;;4.10;;
33696;SDS011;20031;43.416;23.232;2023-12-20T12:33:42;8.75;;;4.50;;
33696;SDS011;20031;43.416;23.232;2023-12-20T12:36:09;9.48;;;4.72;;
33696;SDS011;20031;43.416;23.232;2023-12-20T12:38:36;6.85;;;3.75;;
33696;SDS011;20031;43.416;23.232;2023-12-20T12:41:01;7.18;;;3.78;;
33696;SDS011;20031;43.416;23.232;2023-12-20T12:43:27;5.35;;;3.45;;
33696;SDS011;20031;43.416;23.232;2023-12-20T12:45:53;7.57;;;4.13;;
33696;SDS011;20031;43.416;23.232;2023-12-20T12:48:19;7.85;;;3.45;;
33696;SDS011;20031;43.416;23.232;2023-12-20T12:50:45;6.18;;;3.30;;
33696;SDS011;20031;43.416;23.232;2023-12-20T12:53:11;5.82;;;3.40;;
33696;SDS011;20031;43.416;23.232;2023-12-20T12:55:36;8.45;;;3.50;;
33696;SDS011;20031;43.416;23.232;2023-12-20T12:58:02;4.80;;;3.15;;
33696;SDS011;20031;43.416;23.232;2023-12-20T13:00:28;5.65;;;3.42;;
33696;SDS011;20031;43.416;23.232;2023-12-20T13:03:01;4.70;;;3.60;;
33696;SDS011;20031;43.416;23.232;2023-12-20T13:05:33;4.82;;;3.28;;
33696;SDS011;20031;43.416;23.232;2023-12-20T13:07:59;5.28;;;3.90;;
33696;SDS011;20031;43.416;23.232;2023-12-20T13:10:24;5.30;;;3.65;;
33696;SDS011;20031;43.416;23.232;2023-12-20T13:12:50;10.77;;;3.35;;
33696;SDS011;20031;43.416;23.232;2023-12-20T13:15:15;5.45;;;3.58;;
33696;SDS011;20031;43.416;23.232;2023-12-20T13:17:41;7.38;;;3.70;;
33696;SDS011;20031;43.416;23.232;2023-12-20T13:20:07;4.85;;;3.47;;
33696;SDS011;20031;43.416;23.232;2023-12-20T13:22:32;5.97;;;3.97;;
33696;SDS011;20031;43.416;23.232;2023-12-20T13:24:58;12.68;;;4.15;;
33696;SDS011;20031;43.416;23.232;2023-12-20T13:27:23;14.00;;;5.13;;
33696;SDS011;20031;43.416;23.232;2023-12-20T13:29:49;16.67;;;5.38;;
33696;SDS011;20031;43.416;23.232;2023-12-20T13:32:14;17.13;;;5.55;;
33696;SDS011;20031;43.416;23.232;2023-12-20T13:34:40;10.05;;;4.70;;
33696;SDS011;20031;43.416;23.232;2023-12-20T13:37:05;8.60;;;4.15;;
33696;SDS011;20031;43.416;23.232;2023-12-20T13:39:31;14.52;;;5.47;;
33696;SDS011;20031;43.416;23.232;2023-12-20T13:41:56;9.93;;;5.25;;
33696;SDS011;20031;43.416;23.232;2023-12-20T13:44:22;12.88;;;5.07;;
33696;SDS011;20031;43.416;23.232;2023-12-20T13:46:47;16.02;;;5.57;;
33696;SDS011;20031;43.416;23.232;2023-12-20T13:49:14;13.15;;;6.68;;
33696;SDS011;20031;43.416;23.232;2023-12-20T13:51:40;11.27;;;5.63;;
33696;SDS011;20031;43.416;23.232;2023-12-20T13:54:05;16.33;;;7.68;;
33696;SDS011;20031;43.416;23.232;2023-12-20T13:56:31;9.55;;;5.72;;
33696;SDS011;20031;43.416;23.232;2023-12-20T13:58:56;14.07;;;6.80;;
33696;SDS011;20031;43.416;23.232;2023-12-20T14:01:22;19.90;;;8.55;;
33696;SDS011;20031;43.416;23.232;2023-12-20T14:03:48;27.30;;;10.65;;
33696;SDS011;20031;43.416;23.232;2023-12-20T14:06:13;22.45;;;10.27;;
33696;SDS011;20031;43.416;23.232;2023-12-20T14:08:40;23.25;;;10.48;;
33696;SDS011;20031;43.416;23.232;2023-12-20T14:11:06;21.40;;;9.35;;
33696;SDS011;20031;43.416;23.232;2023-12-20T14:13:32;13.93;;;7.50;;
33696;SDS011;20031;43.416;23.232;2023-12-20T14:15:57;17.23;;;7.60;;
33696;SDS011;20031;43.416;23.232;2023-12-20T14:18:23;14.68;;;7.47;;
33696;SDS011;20031;43.416;23.232;2023-12-20T14:20:49;20.05;;;7.53;;
33696;SDS011;20031;43.416;23.232;2023-12-20T14:23:15;61.55;;;11.75;;